Time;durP1;ratioP1;P1;durP2;ratioP2;P2;SDS_P1;SDS_P2;PMS_P1;PMS_P2;Temp;Humidity;BMP_temperature;BMP_pressure;BME280_temperature;BME280_humidity;BME280_pressure;Samples;Min_cycle;Max_cycle;Signal;HPM_P1;HPM_P2
2023/12/19 00:02:08;;;;;;;17.23;13.40;;;;;;;;;;5053654;28;20024;-56
2023/12/19 00:04:34;;;;;;;15.23;13.52;;;;;;;;;;5053305;28;20021;-57
2023/12/19 00:07:00;;;;;;;15.65;12.68;;;;;;;;;;5053861;28;20482;-57
2023/12/19 00:09:26;;;;;;;19.52;13.60;;;;;;;;;;5053488;28;20025;-57
2023/12/19 00:11:52;;;;;;;15.25;12.35;;;;;;;;;;5053620;28;20029;-56
2023/12/19 00:14:18;;;;;;;12.93;11.43;;;;;;;;;;5053529;28;20021;-57
2023/12/19 00:16:44;;;;;;;13.70;11.88;;;;;;;;;;5053406;28;20025;-57
2023/12/19 00:19:10;;;;;;;14.07;11.57;;;;;;;;;;5054319;28;20025;-57
2023/12/19 00:21:36;;;;;;;17.05;12.73;;;;;;;;;;5054276;28;20060;-57
2023/12/19 00:24:02;;;;;;;16.17;11.45;;;;;;;;;;5053460;28;20075;-57
2023/12/19 00:26:27;;;;;;;11.88;10.05;;;;;;;;;;5053514;28;20414;-57
2023/12/19 00:28:53;;;;;;;15.02;11.32;;;;;;;;;;5053983;28;20071;-57
2023/12/19 00:31:23;;;;;;;12.48;10.18;;;;;;;;;;5053996;28;20418;-57
2023/12/19 00:33:49;;;;;;;16.80;10.40;;;;;;;;;;5053402;28;20029;-57
2023/12/19 00:36:21;;;;;;;12.45;11.13;;;;;;;;;;5053861;28;20413;-57
2023/12/19 00:38:47;;;;;;;10.60;9.38;;;;;;;;;;5053946;28;20043;-56
2023/12/19 00:41:13;;;;;;;12.13;10.40;;;;;;;;;;5053076;28;20372;-57
2023/12/19 00:43:41;;;;;;;14.93;11.27;;;;;;;;;;5053239;28;20029;-57
2023/12/19 00:46:07;;;;;;;12.57;9.47;;;;;;;;;;5053307;28;20112;-59
2023/12/19 00:48:33;;;;;;;11.37;9.83;;;;;;;;;;5054080;28;20467;-57
2023/12/19 00:50:59;;;;;;;13.68;10.13;;;;;;;;;;5053216;28;20025;-57
2023/12/19 00:53:25;;;;;;;17.00;11.30;;;;;;;;;;5053735;28;20032;-57
2023/12/19 00:55:51;;;;;;;15.05;10.57;;;;;;;;;;5056017;28;20041;-57
2023/12/19 00:58:17;;;;;;;13.85;10.63;;;;;;;;;;5056912;28;20029;-57
2023/12/19 01:00:43;;;;;;;12.48;11.15;;;;;;;;;;5056921;28;20054;-57
2023/12/19 01:03:09;;;;;;;15.60;11.07;;;;;;;;;;5057721;28;20453;-56
2023/12/19 01:05:35;;;;;;;14.43;11.98;;;;;;;;;;5056844;28;20454;-57
2023/12/19 01:08:00;;;;;;;15.97;11.70;;;;;;;;;;5057425;28;20031;-56
2023/12/19 01:10:26;;;;;;;13.35;9.60;;;;;;;;;;5056711;28;20507;-56
2023/12/19 01:12:52;;;;;;;16.30;11.33;;;;;;;;;;5056696;28;20116;-57
2023/12/19 01:15:18;;;;;;;12.50;9.45;;;;;;;;;;5056705;28;20060;-57
2023/12/19 01:17:44;;;;;;;16.63;11.47;;;;;;;;;;5056683;28;20025;-57
2023/12/19 01:20:14;;;;;;;13.90;10.75;;;;;;;;;;5057356;28;20353;-58
2023/12/19 01:22:39;;;;;;;18.70;10.00;;;;;;;;;;5056470;28;20021;-57
2023/12/19 01:25:06;;;;;;;11.85;10.20;;;;;;;;;;5056696;28;20025;-56
2023/12/19 01:27:32;;;;;;;18.73;9.82;;;;;;;;;;5057232;28;20439;-56
2023/12/19 01:29:58;;;;;;;13.50;10.60;;;;;;;;;;5057102;28;20025;-57
2023/12/19 01:32:24;;;;;;;10.52;8.48;;;;;;;;;;5056229;28;20021;-57
2023/12/19 01:34:52;;;;;;;10.97;8.90;;;;;;;;;;5056224;28;20025;-57
2023/12/19 01:37:18;;;;;;;11.00;9.53;;;;;;;;;;5056236;28;20033;-57
2023/12/19 01:39:45;;;;;;;11.95;8.68;;;;;;;;;;5056660;28;20167;-57
2023/12/19 01:42:11;;;;;;;11.65;9.32;;;;;;;;;;5056409;28;20021;-59
2023/12/19 01:44:37;;;;;;;11.15;8.18;;;;;;;;;;5056257;28;20036;-58
2023/12/19 01:47:03;;;;;;;11.10;9.02;;;;;;;;;;5056641;28;20043;-57
2023/12/19 01:49:29;;;;;;;9.48;7.70;;;;;;;;;;5055924;28;20179;-58
2023/12/19 01:51:55;;;;;;;9.40;8.30;;;;;;;;;;5056200;28;20409;-57
2023/12/19 01:54:21;;;;;;;12.38;8.77;;;;;;;;;;5055910;28;20100;-57
2023/12/19 01:56:47;;;;;;;9.85;8.38;;;;;;;;;;5055358;28;20433;-57
2023/12/19 01:59:14;;;;;;;10.23;8.70;;;;;;;;;;5055765;28;20064;-57
2023/12/19 02:01:40;;;;;;;8.88;6.18;;;;;;;;;;5055770;28;20055;-58
2023/12/19 02:04:07;;;;;;;8.18;5.80;;;;;;;;;;5056245;28;20021;-57
2023/12/19 02:06:36;;;;;;;5.72;4.78;;;;;;;;;;5055168;28;20061;-57
2023/12/19 02:09:02;;;;;;;7.10;5.68;;;;;;;;;;5055930;28;20467;-56
2023/12/19 02:11:28;;;;;;;9.57;4.88;;;;;;;;;;5055562;28;20056;-57
2023/12/19 02:13:56;;;;;;;7.10;4.53;;;;;;;;;;5056278;28;20079;-56
2023/12/19 02:16:24;;;;;;;4.85;3.78;;;;;;;;;;5055449;28;20037;-58
2023/12/19 02:19:03;;;;;;;6.40;4.13;;;;;;;;;;5055998;28;20052;-57
2023/12/19 02:21:29;;;;;;;5.55;4.10;;;;;;;;;;5055448;28;20040;-54
2023/12/19 02:23:55;;;;;;;4.30;2.97;;;;;;;;;;5056185;28;20108;-55
2023/12/19 02:26:21;;;;;;;5.32;3.53;;;;;;;;;;5055338;28;20052;-57
2023/12/19 02:28:52;;;;;;;4.97;3.38;;;;;;;;;;5055583;28;20029;-58
2023/12/19 02:31:18;;;;;;;4.25;3.10;;;;;;;;;;5055849;28;20029;-57
2023/12/19 02:33:44;;;;;;;3.78;3.22;;;;;;;;;;5054906;28;20021;-57
2023/12/19 02:36:10;;;;;;;3.70;2.47;;;;;;;;;;5055578;28;20021;-57
2023/12/19 02:38:36;;;;;;;4.18;2.58;;;;;;;;;;5055891;28;20332;-58
2023/12/19 02:41:02;;;;;;;3.75;2.58;;;;;;;;;;5055780;28;20029;-55
2023/12/19 02:43:28;;;;;;;4.63;3.42;;;;;;;;;;5054937;28;20471;-57
2023/12/19 02:45:57;;;;;;;3.05;2.10;;;;;;;;;;5055435;28;20024;-58
2023/12/19 02:48:23;;;;;;;2.85;1.80;;;;;;;;;;5055474;28;20471;-57
2023/12/19 02:50:49;;;;;;;2.60;1.77;;;;;;;;;;5055387;28;20019;-54
2023/12/19 02:53:15;;;;;;;2.75;1.80;;;;;;;;;;5054551;28;20028;-57
2023/12/19 02:55:41;;;;;;;3.28;1.83;;;;;;;;;;5054570;28;20116;-58
2023/12/19 02:58:07;;;;;;;2.65;1.75;;;;;;;;;;5054523;28;20124;-58
2023/12/19 03:00:33;;;;;;;4.60;2.47;;;;;;;;;;5054595;28;20064;-57
2023/12/19 03:02:59;;;;;;;3.65;2.13;;;;;;;;;;5055148;28;20134;-56
2023/12/19 03:05:25;;;;;;;3.67;2.47;;;;;;;;;;5054604;28;20057;-56
2023/12/19 03:07:51;;;;;;;2.90;1.88;;;;;;;;;;5054767;28;20060;-57
2023/12/19 03:10:17;;;;;;;2.60;1.67;;;;;;;;;;5053706;28;20040;-57
2023/12/19 03:12:43;;;;;;;7.75;2.25;;;;;;;;;;5054844;28;20036;-56
2023/12/19 03:15:09;;;;;;;5.18;1.92;;;;;;;;;;5054348;28;20031;-56
2023/12/19 03:17:35;;;;;;;2.15;1.38;;;;;;;;;;5054299;28;20037;-57
2023/12/19 03:20:01;;;;;;;2.75;1.67;;;;;;;;;;5055012;28;20492;-58
2023/12/19 03:22:27;;;;;;;3.08;2.15;;;;;;;;;;5054502;28;20021;-58
2023/12/19 03:24:53;;;;;;;3.42;1.92;;;;;;;;;;5054132;28;20082;-58
2023/12/19 03:27:19;;;;;;;4.57;1.73;;;;;;;;;;5054740;28;20025;-58
2023/12/19 03:29:45;;;;;;;3.58;2.17;;;;;;;;;;5054143;28;20055;-58
2023/12/19 03:32:11;;;;;;;2.92;2.10;;;;;;;;;;5054621;28;20025;-58
2023/12/19 03:34:37;;;;;;;2.50;1.65;;;;;;;;;;5054588;28;20078;-56
2023/12/19 03:37:04;;;;;;;3.17;1.90;;;;;;;;;;5054418;28;20072;-56
2023/12/19 03:39:29;;;;;;;2.58;1.80;;;;;;;;;;5054735;28;20025;-58
2023/12/19 03:41:55;;;;;;;3.28;1.23;;;;;;;;;;5053854;28;20447;-58
2023/12/19 03:44:21;;;;;;;2.63;1.70;;;;;;;;;;5053770;28;20017;-58
2023/12/19 03:46:47;;;;;;;2.67;1.77;;;;;;;;;;5053860;28;20025;-55
2023/12/19 03:49:13;;;;;;;3.20;2.10;;;;;;;;;;5054354;28;20021;-56
2023/12/19 03:51:39;;;;;;;2.72;1.92;;;;;;;;;;5053806;28;20028;-56
2023/12/19 03:54:05;;;;;;;4.20;1.95;;;;;;;;;;5053789;28;20025;-56
2023/12/19 03:56:31;;;;;;;2.55;1.63;;;;;;;;;;5054288;28;20076;-55
2023/12/19 03:59:00;;;;;;;3.30;1.75;;;;;;;;;;5053638;28;20024;-53
2023/12/19 04:01:26;;;;;;;4.70;1.70;;;;;;;;;;5053684;28;20114;-56
2023/12/19 04:03:52;;;;;;;5.53;2.33;;;;;;;;;;5053660;28;20122;-56
2023/12/19 04:06:18;;;;;;;3.00;1.55;;;;;;;;;;5053554;28;20064;-57
2023/12/19 04:08:44;;;;;;;2.72;1.80;;;;;;;;;;5053987;28;20162;-54
2023/12/19 04:11:10;;;;;;;2.78;1.65;;;;;;;;;;5054050;28;20083;-56
2023/12/19 04:13:41;;;;;;;3.47;2.08;;;;;;;;;;5054284;28;20094;-58
2023/12/19 04:16:08;;;;;;;4.57;1.42;;;;;;;;;;5053538;28;20036;-56
2023/12/19 04:18:34;;;;;;;2.75;1.60;;;;;;;;;;5054026;28;20021;-57
2023/12/19 04:21:00;;;;;;;2.35;1.55;;;;;;;;;;5054014;28;20027;-57
2023/12/19 04:23:26;;;;;;;2.15;1.38;;;;;;;;;;5053375;28;20056;-57
2023/12/19 04:25:52;;;;;;;2.90;1.55;;;;;;;;;;5053480;28;20190;-54
2023/12/19 04:28:18;;;;;;;2.75;1.77;;;;;;;;;;5053994;28;20018;-55
2023/12/19 04:30:44;;;;;;;2.00;1.27;;;;;;;;;;5057216;28;20522;-57
2023/12/19 04:33:10;;;;;;;3.00;2.15;;;;;;;;;;5058150;28;20443;-55
2023/12/19 04:35:35;;;;;;;3.75;2.13;;;;;;;;;;5057335;28;20021;-55
2023/12/19 04:38:01;;;;;;;2.75;1.85;;;;;;;;;;5057572;28;20036;-55
2023/12/19 04:40:29;;;;;;;2.58;1.55;;;;;;;;;;5057313;28;20025;-54
2023/12/19 04:42:55;;;;;;;2.72;1.90;;;;;;;;;;5057194;28;20025;-56
2023/12/19 04:45:21;;;;;;;3.75;1.60;;;;;;;;;;5057219;28;20112;-54
2023/12/19 04:47:46;;;;;;;3.17;1.70;;;;;;;;;;5057758;28;20108;-58
2023/12/19 04:50:12;;;;;;;2.25;1.20;;;;;;;;;;5057714;28;20048;-58
2023/12/19 04:52:39;;;;;;;3.20;2.00;;;;;;;;;;5057118;28;20072;-58
2023/12/19 04:55:05;;;;;;;3.92;1.88;;;;;;;;;;5056759;28;20378;-58
2023/12/19 04:57:31;;;;;;;4.88;2.78;;;;;;;;;;5056830;28;20478;-57
2023/12/19 04:59:56;;;;;;;4.00;2.15;;;;;;;;;;5056903;28;20025;-57
2023/12/19 05:02:23;;;;;;;3.47;2.42;;;;;;;;;;5057419;28;20064;-54
2023/12/19 05:04:49;;;;;;;3.35;2.40;;;;;;;;;;5056881;28;20025;-58
2023/12/19 05:07:15;;;;;;;4.47;2.45;;;;;;;;;;5057679;28;20032;-57
2023/12/19 05:09:41;;;;;;;5.53;3.07;;;;;;;;;;5057286;28;20078;-58
2023/12/19 05:12:07;;;;;;;4.55;2.65;;;;;;;;;;5056786;28;20025;-58
2023/12/19 05:14:33;;;;;;;5.30;2.88;;;;;;;;;;5056494;28;20399;-57
2023/12/19 05:17:01;;;;;;;4.20;2.58;;;;;;;;;;5056657;28;20386;-57
2023/12/19 05:19:27;;;;;;;4.95;3.47;;;;;;;;;;5056582;28;20455;-57
2023/12/19 05:21:53;;;;;;;6.30;3.70;;;;;;;;;;5056130;28;20031;-56
2023/12/19 05:24:19;;;;;;;4.75;3.83;;;;;;;;;;5057042;28;20116;-56
2023/12/19 05:26:45;;;;;;;5.53;4.13;;;;;;;;;;5056483;28;20025;-56
2023/12/19 05:29:11;;;;;;;6.50;4.38;;;;;;;;;;5056753;28;20162;-56
2023/12/19 05:31:37;;;;;;;5.03;4.10;;;;;;;;;;5056134;28;20412;-57
2023/12/19 05:34:04;;;;;;;7.07;5.00;;;;;;;;;;5056684;28;20033;-56
2023/12/19 05:36:33;;;;;;;6.85;5.72;;;;;;;;;;5055819;28;20036;-53
2023/12/19 05:38:59;;;;;;;12.43;7.20;;;;;;;;;;5056973;28;20094;-56
2023/12/19 05:41:25;;;;;;;9.88;7.97;;;;;;;;;;5055213;28;20251;-55
2023/12/19 05:43:56;;;;;;;9.85;6.32;;;;;;;;;;5056879;28;20029;-56
2023/12/19 05:46:21;;;;;;;9.73;6.38;;;;;;;;;;5056105;28;20044;-56
2023/12/19 05:48:47;;;;;;;10.23;6.82;;;;;;;;;;5056573;28;20029;-57
2023/12/19 05:51:15;;;;;;;8.13;7.20;;;;;;;;;;5055978;28;20450;-55
2023/12/19 05:53:41;;;;;;;7.20;6.00;;;;;;;;;;5056694;28;20039;-56
2023/12/19 05:56:12;;;;;;;8.60;6.40;;;;;;;;;;5056027;28;20053;-58
2023/12/19 05:58:38;;;;;;;7.37;5.33;;;;;;;;;;5056580;28;20446;-57
2023/12/19 06:01:07;;;;;;;6.10;5.03;;;;;;;;;;5055450;28;20064;-57
2023/12/19 06:03:33;;;;;;;7.05;5.20;;;;;;;;;;5056153;28;20036;-58
2023/12/19 06:05:59;;;;;;;6.00;4.43;;;;;;;;;;5055361;28;20020;-57
2023/12/19 06:08:25;;;;;;;6.57;4.13;;;;;;;;;;5055721;28;20087;-58
2023/12/19 06:10:52;;;;;;;6.25;4.40;;;;;;;;;;5055776;28;20021;-58
2023/12/19 06:13:18;;;;;;;4.50;3.50;;;;;;;;;;5055515;28;20036;-57
2023/12/19 06:15:44;;;;;;;6.77;4.27;;;;;;;;;;5055533;28;20116;-59
2023/12/19 06:18:10;;;;;;;6.30;4.20;;;;;;;;;;5055771;28;20032;-58
2023/12/19 06:20:36;;;;;;;5.18;4.15;;;;;;;;;;5055389;28;20029;-55
2023/12/19 06:23:03;;;;;;;5.53;3.90;;;;;;;;;;5055362;28;20108;-57
2023/12/19 06:25:31;;;;;;;4.50;3.47;;;;;;;;;;5056121;28;20044;-58
2023/12/19 06:27:57;;;;;;;6.17;3.47;;;;;;;;;;5055998;28;20337;-58
2023/12/19 06:30:23;;;;;;;4.32;3.20;;;;;;;;;;5055744;28;20116;-57
2023/12/19 06:32:49;;;;;;;4.07;3.25;;;;;;;;;;5055850;28;20060;-55
2023/12/19 06:35:15;;;;;;;7.30;3.67;;;;;;;;;;5055540;28;20362;-57
2023/12/19 06:37:41;;;;;;;5.17;3.47;;;;;;;;;;5055148;28;20033;-59
2023/12/19 06:40:07;;;;;;;5.50;3.43;;;;;;;;;;5055184;28;20035;-59
2023/12/19 06:42:33;;;;;;;4.27;3.17;;;;;;;;;;5055143;28;20036;-58
2023/12/19 06:45:00;;;;;;;5.90;2.77;;;;;;;;;;5055669;28;20035;-54
2023/12/19 06:47:26;;;;;;;5.57;3.10;;;;;;;;;;5055028;28;20060;-54
2023/12/19 06:49:53;;;;;;;5.50;2.47;;;;;;;;;;5054880;28;20043;-56
2023/12/19 06:52:18;;;;;;;4.47;2.60;;;;;;;;;;5055140;28;20036;-56
2023/12/19 06:54:46;;;;;;;6.38;2.50;;;;;;;;;;5054596;28;20025;-56
2023/12/19 06:57:12;;;;;;;4.85;2.50;;;;;;;;;;5054982;28;20044;-53
2023/12/19 06:59:38;;;;;;;3.13;1.80;;;;;;;;;;5054816;28;20029;-56
2023/12/19 07:02:04;;;;;;;4.07;2.65;;;;;;;;;;5054674;28;20032;-56
2023/12/19 07:04:31;;;;;;;4.53;3.38;;;;;;;;;;5054536;28;20096;-55
2023/12/19 07:06:57;;;;;;;12.60;5.00;;;;;;;;;;5054597;28;20029;-54
2023/12/19 07:09:23;;;;;;;9.07;5.95;;;;;;;;;;5054712;28;20040;-55
2023/12/19 07:11:49;;;;;;;12.05;5.25;;;;;;;;;;5054818;28;20383;-55
2023/12/19 07:14:15;;;;;;;8.32;5.85;;;;;;;;;;5054517;28;20028;-55
2023/12/19 07:16:41;;;;;;;8.20;5.50;;;;;;;;;;5054266;28;20111;-57
2023/12/19 07:19:07;;;;;;;5.72;4.68;;;;;;;;;;5054960;28;20037;-53
2023/12/19 07:21:36;;;;;;;6.40;5.60;;;;;;;;;;5054248;28;20044;-53
2023/12/19 07:24:02;;;;;;;7.60;5.80;;;;;;;;;;5054544;28;20112;-54
2023/12/19 07:26:29;;;;;;;6.73;5.23;;;;;;;;;;5054534;28;20032;-53
2023/12/19 07:28:57;;;;;;;7.25;5.82;;;;;;;;;;5053970;28;20157;-53
2023/12/19 07:31:24;;;;;;;7.65;5.82;;;;;;;;;;5054109;28;20107;-56
2023/12/19 07:33:54;;;;;;;8.77;5.97;;;;;;;;;;5054900;28;20070;-56
2023/12/19 07:36:20;;;;;;;;;;;;;;;;;;5054557;28;20535;-56
2023/12/19 07:38:46;;;;;;;9.27;6.40;;;;;;;;;;5054042;28;19909;-54
2023/12/19 07:41:12;;;;;;;7.72;6.68;;;;;;;;;;5053981;28;20404;-54
2023/12/19 07:43:38;;;;;;;10.83;6.77;;;;;;;;;;5053960;28;20046;-56
2023/12/19 07:46:06;;;;;;;8.95;6.47;;;;;;;;;;5054717;28;20047;-55
2023/12/19 07:48:32;;;;;;;8.23;7.17;;;;;;;;;;5054725;28;20025;-56
2023/12/19 07:50:58;;;;;;;10.47;6.93;;;;;;;;;;5053842;28;20044;-54
2023/12/19 07:53:25;;;;;;;9.57;7.63;;;;;;;;;;5054214;28;20025;-56
2023/12/19 07:55:52;;;;;;;10.47;7.57;;;;;;;;;;5054044;28;20052;-53
2023/12/19 07:58:18;;;;;;;13.97;9.20;;;;;;;;;;5053629;28;20124;-53
2023/12/19 08:00:44;;;;;;;15.10;8.97;;;;;;;;;;5054070;28;20510;-56
2023/12/19 08:03:11;;;;;;;21.50;8.87;;;;;;;;;;5053087;28;20467;-56
2023/12/19 08:05:37;;;;;;;10.60;7.57;;;;;;;;;;5053479;28;20060;-52
2023/12/19 08:08:03;;;;;;;9.00;8.10;;;;;;;;;;5054211;28;20040;-54
2023/12/19 08:10:29;;;;;;;10.03;8.33;;;;;;;;;;5053672;28;20111;-56
2023/12/19 08:12:55;;;;;;;8.50;7.60;;;;;;;;;;5053818;28;20029;-55
2023/12/19 08:15:21;;;;;;;11.03;7.80;;;;;;;;;;5053375;28;20082;-55
2023/12/19 08:17:47;;;;;;;11.90;7.57;;;;;;;;;;5053828;28;20036;-55
2023/12/19 08:20:15;;;;;;;10.37;7.10;;;;;;;;;;5053618;28;20036;-56
2023/12/19 08:22:44;;;;;;;13.03;8.23;;;;;;;;;;5054084;28;20024;-56
2023/12/19 08:25:10;;;;;;;15.83;10.57;;;;;;;;;;5054356;28;20029;-55
2023/12/19 08:27:36;;;;;;;12.00;9.60;;;;;;;;;;5053890;28;20481;-54
2023/12/19 08:30:03;;;;;;;12.10;9.90;;;;;;;;;;5053504;28;20455;-53
2023/12/19 08:32:30;;;;;;;15.47;9.97;;;;;;;;;;5053712;28;20025;-56
2023/12/19 08:34:58;;;;;;;11.13;9.97;;;;;;;;;;5054278;28;20068;-54
2023/12/19 08:37:24;;;;;;;12.73;10.90;;;;;;;;;;5053431;28;20041;-54
2023/12/19 08:39:54;;;;;;;11.23;10.13;;;;;;;;;;5053471;28;20044;-55
2023/12/19 08:42:20;;;;;;;10.10;9.05;;;;;;;;;;5053361;28;20025;-54
2023/12/19 08:44:46;;;;;;;15.97;11.97;;;;;;;;;;5053043;28;20032;-56
2023/12/19 08:47:12;;;;;;;12.17;9.57;;;;;;;;;;5053417;28;20029;-56
2023/12/19 08:49:43;;;;;;;12.37;11.10;;;;;;;;;;5053069;28;20025;-56
2023/12/19 08:52:09;;;;;;;15.00;10.87;;;;;;;;;;5053853;28;20020;-52
2023/12/19 08:54:36;;;;;;;16.63;12.67;;;;;;;;;;5053181;28;20021;-55
2023/12/19 08:57:02;;;;;;;17.30;11.88;;;;;;;;;;5053710;28;20459;-56
2023/12/19 08:59:28;;;;;;;18.63;11.70;;;;;;;;;;5053552;28;20351;-56
2023/12/19 09:01:54;;;;;;;16.60;12.53;;;;;;;;;;5053916;28;20029;-56
2023/12/19 09:04:21;;;;;;;15.20;11.10;;;;;;;;;;5053155;28;20427;-55
2023/12/19 09:06:47;;;;;;;14.50;11.33;;;;;;;;;;5053070;28;20033;-56
2023/12/19 09:09:13;;;;;;;11.77;10.57;;;;;;;;;;5052882;28;20021;-56
2023/12/19 09:11:39;;;;;;;15.80;13.00;;;;;;;;;;5053309;28;20029;-55
2023/12/19 09:14:05;;;;;;;16.83;12.37;;;;;;;;;;5053771;28;20501;-56
2023/12/19 09:16:31;;;;;;;13.73;12.17;;;;;;;;;;5054906;28;20138;-52
2023/12/19 09:18:57;;;;;;;14.77;12.50;;;;;;;;;;5057040;28;20033;-53
2023/12/19 09:21:23;;;;;;;12.82;11.13;;;;;;;;;;5056606;28;20021;-56
2023/12/19 09:23:49;;;;;;;15.88;11.40;;;;;;;;;;5056924;28;20025;-53
2023/12/19 09:26:15;;;;;;;15.93;11.93;;;;;;;;;;5057109;28;20028;-54
2023/12/19 09:28:41;;;;;;;14.80;12.53;;;;;;;;;;5056966;28;20099;-55
2023/12/19 09:31:10;;;;;;;16.98;11.77;;;;;;;;;;5056538;28;20025;-55
2023/12/19 09:33:39;;;;;;;14.95;11.85;;;;;;;;;;5056516;28;20025;-56
2023/12/19 09:36:06;;;;;;;15.37;12.73;;;;;;;;;;5056278;28;20025;-56
2023/12/19 09:38:32;;;;;;;14.35;12.05;;;;;;;;;;5057197;28;20164;-55
2023/12/19 09:40:58;;;;;;;15.32;12.35;;;;;;;;;;5056395;28;20076;-54
2023/12/19 09:43:24;;;;;;;17.15;12.43;;;;;;;;;;5056301;28;20021;-54
2023/12/19 09:45:51;;;;;;;15.57;11.75;;;;;;;;;;5056671;28;20035;-52
2023/12/19 09:48:18;;;;;;;13.40;10.60;;;;;;;;;;5057044;28;20040;-56
2023/12/19 09:50:47;;;;;;;12.98;11.57;;;;;;;;;;5056101;28;20036;-56
2023/12/19 09:53:14;;;;;;;13.00;11.00;;;;;;;;;;5055694;28;20463;-55
2023/12/19 09:55:44;;;;;;;11.65;10.15;;;;;;;;;;5055896;28;20363;-54
2023/12/19 09:58:11;;;;;;;12.52;10.75;;;;;;;;;;5055753;28;20033;-54
2023/12/19 10:00:39;;;;;;;16.45;11.43;;;;;;;;;;5056230;28;20090;-54
2023/12/19 10:03:06;;;;;;;14.60;11.52;;;;;;;;;;5055979;28;20021;-57
2023/12/19 10:05:32;;;;;;;12.38;10.23;;;;;;;;;;5056457;28;20115;-53
2023/12/19 10:07:58;;;;;;;16.88;11.77;;;;;;;;;;5056746;28;20029;-57
2023/12/19 10:10:45;;;;;;;16.42;12.27;;;;;;;;;;5056617;28;20359;-56
2023/12/19 10:13:11;;;;;;;14.68;12.00;;;;;;;;;;5051956;28;20123;-57
2023/12/19 10:15:36;;;;;;;13.55;11.57;;;;;;;;;;5055661;28;20072;-56
2023/12/19 10:18:04;;;;;;;14.10;11.07;;;;;;;;;;5056374;28;20044;-55
2023/12/19 10:20:32;;;;;;;14.05;12.07;;;;;;;;;;5055209;28;20467;-56
2023/12/19 10:23:01;;;;;;;14.43;12.18;;;;;;;;;;5055223;28;20423;-56
2023/12/19 10:25:27;;;;;;;12.67;10.80;;;;;;;;;;5055455;28;20048;-56
2023/12/19 10:28:08;;;;;;;14.98;11.77;;;;;;;;;;5055147;28;20162;-54
2023/12/19 10:30:36;;;;;;;18.38;13.00;;;;;;;;;;5055332;28;20025;-55
2023/12/19 10:33:02;;;;;;;13.90;11.70;;;;;;;;;;5055680;28;20166;-55
2023/12/19 10:35:38;;;;;;;13.57;10.48;;;;;;;;;;5055623;28;20332;-55
2023/12/19 10:38:05;;;;;;;19.25;12.60;;;;;;;;;;5055299;28;20168;-56
2023/12/19 10:40:31;;;;;;;16.08;11.68;;;;;;;;;;5055851;28;20069;-55
2023/12/19 10:42:58;;;;;;;15.43;12.07;;;;;;;;;;5055418;28;20565;-56
2023/12/19 10:45:28;;;;;;;15.27;11.97;;;;;;;;;;5055101;28;20107;-56
2023/12/19 10:47:54;;;;;;;14.97;13.47;;;;;;;;;;5055151;28;20378;-55
2023/12/19 10:50:20;;;;;;;16.27;13.40;;;;;;;;;;5055217;28;20025;-56
2023/12/19 10:52:49;;;;;;;15.82;12.90;;;;;;;;;;5055640;28;20036;-54
2023/12/19 10:55:21;;;;;;;15.93;12.53;;;;;;;;;;5054567;28;20399;-55
2023/12/19 10:57:48;;;;;;;16.40;14.35;;;;;;;;;;5055042;28;20082;-56
2023/12/19 11:00:26;;;;;;;18.42;13.88;;;;;;;;;;5054764;28;20025;-56
2023/12/19 11:02:55;;;;;;;14.95;12.68;;;;;;;;;;5055476;28;20025;-57
2023/12/19 11:05:24;;;;;;;16.60;14.90;;;;;;;;;;5054528;28;20024;-57
2023/12/19 11:07:51;;;;;;;19.47;14.40;;;;;;;;;;5055453;28;20139;-57
2023/12/19 11:10:19;;;;;;;14.02;11.70;;;;;;;;;;5054256;28;20059;-57
2023/12/19 11:12:45;;;;;;;19.37;13.13;;;;;;;;;;5055307;28;20021;-55
2023/12/19 11:15:12;;;;;;;17.67;14.80;;;;;;;;;;5054180;28;20033;-56
2023/12/19 11:17:53;;;;;;;18.03;16.03;;;;;;;;;;5054789;28;20132;-55
2023/12/19 11:20:45;;;;;;;19.52;17.13;;;;;;;;;;5054350;28;20021;-54
2023/12/19 11:23:30;;;;;;;18.70;15.23;;;;;;;;;;5053267;28;20037;-56
2023/12/19 11:26:00;;;;;;;19.02;16.23;;;;;;;;;;5054608;28;20371;-55
2023/12/19 11:28:26;;;;;;;18.13;14.68;;;;;;;;;;5054861;28;20052;-56
2023/12/19 11:30:52;;;;;;;20.80;16.25;;;;;;;;;;5054174;28;20067;-53
2023/12/19 11:33:28;;;;;;;18.17;14.57;;;;;;;;;;5054336;28;20052;-53
2023/12/19 11:35:54;;;;;;;17.87;13.97;;;;;;;;;;5054578;28;20021;-52
2023/12/19 11:38:25;;;;;;;18.70;14.07;;;;;;;;;;5053915;28;20119;-56
2023/12/19 11:40:52;;;;;;;16.63;13.90;;;;;;;;;;5054172;28;20032;-55
2023/12/19 11:43:38;;;;;;;18.23;14.00;;;;;;;;;;5054486;28;20078;-54
2023/12/19 11:46:16;;;;;;;17.93;13.37;;;;;;;;;;5050118;28;20087;-54
2023/12/19 11:48:52;;;;;;;15.07;11.70;;;;;;;;;;5054380;28;20112;-54
2023/12/19 11:51:39;;;;;;;14.82;12.88;;;;;;;;;;5054522;28;20025;-53
2023/12/19 11:54:05;;;;;;;14.50;12.98;;;;;;;;;;5054099;28;20025;-55
2023/12/19 11:56:31;;;;;;;21.67;13.33;;;;;;;;;;5053892;28;20391;-53
2023/12/19 11:58:59;;;;;;;17.50;13.87;;;;;;;;;;5053728;28;20047;-52
2023/12/19 12:01:25;;;;;;;17.55;13.45;;;;;;;;;;5053215;28;20459;-50
2023/12/19 12:04:03;;;;;;;15.73;13.10;;;;;;;;;;5053728;28;20025;-51
2023/12/19 12:06:29;;;;;;;13.43;11.82;;;;;;;;;;5053716;28;20128;-52
2023/12/19 12:08:55;;;;;;;15.75;12.88;;;;;;;;;;5054193;28;20060;-52
2023/12/19 12:11:21;;;;;;;14.77;13.25;;;;;;;;;;5053398;28;20032;-50
2023/12/19 12:14:01;;;;;;;16.05;13.68;;;;;;;;;;5053561;28;20036;-54
2023/12/19 12:16:36;;;;;;;16.02;13.00;;;;;;;;;;5053566;28;20036;-55
2023/12/19 12:19:12;;;;;;;16.92;12.90;;;;;;;;;;5054263;28;20470;-55
2023/12/19 12:21:44;;;;;;;16.63;13.10;;;;;;;;;;5053644;28;20056;-53
2023/12/19 12:24:16;;;;;;;16.48;12.68;;;;;;;;;;5053890;28;20048;-49
2023/12/19 12:26:42;;;;;;;17.35;12.70;;;;;;;;;;5053848;28;20029;-55
2023/12/19 12:29:08;;;;;;;14.82;13.25;;;;;;;;;;5054071;28;20032;-49
2023/12/19 12:31:35;;;;;;;15.70;13.55;;;;;;;;;;5054274;28;20100;-54
2023/12/19 12:34:01;;;;;;;14.93;13.30;;;;;;;;;;5054158;28;20029;-53
2023/12/19 12:36:27;;;;;;;19.27;14.13;;;;;;;;;;5053008;28;20108;-52
2023/12/19 12:38:56;;;;;;;18.70;13.40;;;;;;;;;;5053685;28;20037;-52
2023/12/19 12:41:22;;;;;;;15.90;12.88;;;;;;;;;;5053326;28;20025;-53
2023/12/19 12:43:53;;;;;;;17.33;14.10;;;;;;;;;;5053384;28;20021;-52
2023/12/19 12:46:21;;;;;;;18.73;14.13;;;;;;;;;;5053984;28;20029;-54
2023/12/19 12:48:53;;;;;;;16.98;12.82;;;;;;;;;;5053735;28;20055;-52
2023/12/19 12:51:20;;;;;;;16.95;13.48;;;;;;;;;;5056631;28;20040;-55
2023/12/19 12:53:53;;;;;;;16.60;13.50;;;;;;;;;;5057663;28;20021;-54
2023/12/19 12:56:19;;;;;;;15.38;13.25;;;;;;;;;;5058049;28;20049;-52
2023/12/19 12:58:49;;;;;;;14.30;12.80;;;;;;;;;;5056924;28;20528;-54
2023/12/19 13:01:15;;;;;;;14.63;13.07;;;;;;;;;;5057035;28;20430;-55
2023/12/19 13:03:41;;;;;;;16.23;12.77;;;;;;;;;;5056827;28;20024;-53
2023/12/19 13:06:07;;;;;;;18.95;13.02;;;;;;;;;;5057447;28;20025;-53
2023/12/19 13:08:34;;;;;;;15.75;11.70;;;;;;;;;;5056978;28;20455;-51
2023/12/19 13:11:01;;;;;;;13.02;10.52;;;;;;;;;;5056945;28;20082;-52
2023/12/19 13:13:27;;;;;;;16.55;12.10;;;;;;;;;;5057396;28;20017;-54
2023/12/19 13:15:53;;;;;;;16.80;10.82;;;;;;;;;;5057068;28;20469;-52
2023/12/19 13:18:20;;;;;;;15.55;10.05;;;;;;;;;;5056457;28;20459;-49
2023/12/19 13:20:46;;;;;;;20.08;12.07;;;;;;;;;;5056685;28;20029;-54
2023/12/19 13:23:12;;;;;;;14.38;11.60;;;;;;;;;;5056639;28;20370;-53
2023/12/19 13:25:41;;;;;;;14.98;11.02;;;;;;;;;;5056679;28;20016;-51
2023/12/19 13:28:10;;;;;;;19.20;9.82;;;;;;;;;;5056572;28;20025;-49
2023/12/19 13:30:36;;;;;;;19.52;10.65;;;;;;;;;;5056873;28;20029;-49
2023/12/19 13:33:04;;;;;;;16.10;11.32;;;;;;;;;;5056237;28;20032;-50
2023/12/19 13:35:31;;;;;;;13.40;10.68;;;;;;;;;;5056310;28;20078;-52
2023/12/19 13:37:57;;;;;;;13.45;9.90;;;;;;;;;;5056872;28;20131;-53
2023/12/19 13:40:23;;;;;;;15.18;11.32;;;;;;;;;;5056829;28;20131;-54
2023/12/19 13:42:49;;;;;;;15.32;11.23;;;;;;;;;;5056157;28;20438;-52
2023/12/19 13:45:15;;;;;;;14.45;10.77;;;;;;;;;;5056184;28;20409;-54
2023/12/19 13:47:41;;;;;;;12.20;10.82;;;;;;;;;;5056663;28;20029;-52
2023/12/19 13:50:07;;;;;;;14.27;11.00;;;;;;;;;;5056269;28;20044;-55
2023/12/19 13:52:37;;;;;;;12.57;9.90;;;;;;;;;;5056072;28;20028;-54
2023/12/19 13:55:03;;;;;;;15.20;10.50;;;;;;;;;;5055771;28;20107;-52
2023/12/19 13:57:29;;;;;;;18.67;11.13;;;;;;;;;;5055518;28;20040;-51
2023/12/19 13:59:54;;;;;;;12.45;10.98;;;;;;;;;;5056013;28;20025;-50
2023/12/19 14:02:22;;;;;;;13.00;10.18;;;;;;;;;;5056006;28;20021;-53
2023/12/19 14:04:49;;;;;;;17.67;11.93;;;;;;;;;;5056317;28;20029;-52
2023/12/19 14:07:17;;;;;;;15.80;10.73;;;;;;;;;;5056371;28;20065;-53
2023/12/19 14:09:43;;;;;;;12.55;11.18;;;;;;;;;;5056466;28;20447;-52
2023/12/19 14:12:09;;;;;;;11.82;10.15;;;;;;;;;;5056311;28;20032;-50
2023/12/19 14:14:35;;;;;;;12.68;10.15;;;;;;;;;;5056015;28;20075;-55
2023/12/19 14:17:01;;;;;;;12.65;11.15;;;;;;;;;;5055639;28;20324;-51
2023/12/19 14:19:27;;;;;;;13.10;11.20;;;;;;;;;;5056384;28;20028;-51
2023/12/19 14:21:53;;;;;;;15.40;10.25;;;;;;;;;;5055423;28;20497;-50
2023/12/19 14:24:19;;;;;;;14.80;10.40;;;;;;;;;;5055196;28;20382;-52
2023/12/19 14:26:45;;;;;;;19.58;12.35;;;;;;;;;;5055693;28;20398;-50
2023/12/19 14:29:11;;;;;;;13.18;11.07;;;;;;;;;;5056045;28;20086;-49